Time;durP1;ratioP1;P1;durP2;ratioP2;P2;SDS_P1;SDS_P2;PMS_P1;PMS_P2;Temp;Humidity;BMP_temperature;BMP_pressure;BME280_temperature;BME280_humidity;BME280_pressure;Samples;Min_cycle;Max_cycle;Signal;HPM_P1;HPM_P2
2022/02/25 00:02:08;;;;;;;2.42;1.30;;;2.90;99.90;;;;;;5083700;28;20494;-43
2022/02/25 00:04:34;;;;;;;3.47;1.02;;;2.90;99.90;;;;;;5076745;28;20051;-42
2022/02/25 00:07:00;;;;;;;3.50;1.30;;;2.90;99.90;;;;;;5081542;28;20043;-42
2022/02/25 00:09:25;;;;;;;4.13;1.50;;;2.80;99.90;;;;;;5078352;28;20027;-44
2022/02/25 00:11:51;;;;;;;4.75;1.50;;;2.80;99.90;;;;;;5078764;28;20077;-43
2022/02/25 00:14:16;;;;;;;3.67;1.30;;;2.80;99.90;;;;;;5080668;28;20027;-43
2022/02/25 00:16:42;;;;;;;3.08;1.52;;;2.80;99.90;;;;;;5076370;28;20150;-42
2022/02/25 00:19:07;;;;;;;4.32;1.23;;;2.80;99.90;;;;;;5083491;28;20032;-42
2022/02/25 00:21:33;;;;;;;4.65;1.30;;;2.70;99.90;;;;;;5073565;28;20490;-42
2022/02/25 00:23:58;;;;;;;3.38;1.40;;;2.70;99.90;;;;;;5083823;28;20040;-43
2022/02/25 00:26:24;;;;;;;2.45;1.17;;;2.70;99.90;;;;;;5072729;28;20012;-43
2022/02/25 00:28:50;;;;;;;3.17;1.40;;;2.70;99.90;;;;;;5085253;28;20482;-42
2022/02/25 00:31:15;;;;;;;3.85;1.35;;;2.70;99.90;;;;;;5071570;28;20139;-41
2022/02/25 00:33:41;;;;;;;6.00;1.83;;;2.70;99.90;;;;;;5084904;28;20035;-42
2022/02/25 00:36:06;;;;;;;5.25;1.42;;;2.70;99.90;;;;;;5072587;28;20031;-43
2022/02/25 00:38:32;;;;;;;3.45;1.20;;;2.70;99.90;;;;;;5084619;28;20047;-41
2022/02/25 00:40:58;;;;;;;4.38;1.88;;;2.70;99.90;;;;;;5074147;28;20044;-43
2022/02/25 00:43:23;;;;;;;2.22;1.08;;;2.70;99.90;;;;;;5082025;28;20032;-43
2022/02/25 00:45:49;;;;;;;4.43;1.23;;;2.80;99.90;;;;;;5077887;28;20070;-43
2022/02/25 00:48:14;;;;;;;5.45;1.30;;;2.90;99.90;;;;;;5079220;28;20435;-42
2022/02/25 00:50:40;;;;;;;3.20;1.20;;;3.00;99.90;;;;;;5072742;28;20059;-42
2022/02/25 00:53:05;;;;;;;4.65;1.42;;;3.00;99.90;;;;;;5072674;28;20075;-43
2022/02/25 00:55:31;;;;;;;4.80;1.52;;;3.10;99.90;;;;;;5067742;28;20754;-43
2022/02/25 00:57:58;;;;;;;2.30;1.10;;;3.20;99.90;;;;;;5079074;28;20036;-43
2022/02/25 01:00:24;;;;;;;4.93;1.15;;;3.30;99.90;;;;;;5069529;28;20053;-44
2022/02/25 01:02:49;;;;;;;2.55;0.85;;;3.30;99.90;;;;;;5079718;28;20082;-42
2022/02/25 01:05:15;;;;;;;5.70;1.17;;;3.40;99.90;;;;;;5069109;28;20029;-42
2022/02/25 01:07:42;;;;;;;3.40;1.00;;;3.30;99.90;;;;;;5079728;28;20028;-43
2022/02/25 01:10:10;;;;;;;6.72;1.33;;;3.30;99.90;;;;;;5067756;28;20795;-42
2022/02/25 01:12:36;;;;;;;6.47;1.13;;;3.20;99.90;;;;;;5080132;28;20039;-42
2022/02/25 01:15:03;;;;;;;5.72;1.35;;;3.10;99.90;;;;;;5068188;28;20029;-43
2022/02/25 01:17:29;;;;;;;2.78;1.40;;;3.10;99.90;;;;;;5079562;28;20051;-39
2022/02/25 01:19:56;;;;;;;4.25;1.85;;;3.10;99.90;;;;;;5068184;28;20468;-42
2022/02/25 01:22:23;;;;;;;5.88;1.50;;;3.10;99.90;;;;;;5077929;28;20027;-42
2022/02/25 01:24:48;;;;;;;6.60;1.10;;;3.00;99.90;;;;;;5070177;28;20107;-43
2022/02/25 01:27:14;;;;;;;3.20;1.17;;;3.00;99.90;;;;;;5074452;28;20123;-43
2022/02/25 01:29:40;;;;;;;3.33;1.38;;;2.90;99.90;;;;;;5071301;28;20029;-42
2022/02/25 01:32:06;;;;;;;5.30;1.35;;;2.90;99.90;;;;;;5072908;28;20116;-43
2022/02/25 01:34:35;;;;;;;4.68;1.67;;;2.80;99.90;;;;;;5074374;28;20132;-42
2022/02/25 01:37:00;;;;;;;5.82;1.42;;;2.80;99.90;;;;;;5070509;28;20131;-43
2022/02/25 01:39:26;;;;;;;7.30;1.90;;;2.70;99.90;;;;;;5076395;28;20367;-42
2022/02/25 01:41:51;;;;;;;3.95;1.60;;;2.70;99.90;;;;;;5068981;28;20024;-43
2022/02/25 01:44:20;;;;;;;4.75;1.42;;;2.70;99.90;;;;;;5077705;28;20553;-43
2022/02/25 01:46:49;;;;;;;7.10;1.70;;;2.60;99.90;;;;;;5068706;28;20052;-42
2022/02/25 01:49:15;;;;;;;4.40;2.10;;;2.60;99.90;;;;;;5078565;28;20017;-42
2022/02/25 01:51:41;;;;;;;4.25;1.75;;;2.50;99.90;;;;;;5066577;28;20086;-41
2022/02/25 01:54:06;;;;;;;6.70;2.22;;;2.50;99.90;;;;;;5079627;28;20040;-43
2022/02/25 01:56:32;;;;;;;3.17;1.60;;;2.50;99.90;;;;;;5066170;28;20045;-43
2022/02/25 01:59:00;;;;;;;3.50;1.90;;;2.50;99.90;;;;;;5079344;28;20040;-44
2022/02/25 02:01:26;;;;;;;3.72;1.75;;;2.50;99.90;;;;;;5066489;28;20463;-42
2022/02/25 02:03:55;;;;;;;4.00;1.70;;;2.40;99.90;;;;;;5078400;28;20032;-43
2022/02/25 02:06:20;;;;;;;6.82;2.10;;;2.40;99.90;;;;;;5066179;28;20016;-43
2022/02/25 02:08:46;;;;;;;4.40;2.00;;;2.40;99.90;;;;;;5075902;28;20097;-43
2022/02/25 02:11:28;;;;;;;6.88;2.38;;;2.40;99.90;;;;;;5070285;28;20036;-42
2022/02/25 02:13:54;;;;;;;5.40;2.20;;;2.40;99.90;;;;;;5075609;28;20028;-43
2022/02/25 02:16:19;;;;;;;7.22;2.28;;;2.40;99.90;;;;;;5070041;28;20031;-43
2022/02/25 02:18:45;;;;;;;4.35;2.10;;;2.40;99.90;;;;;;5072847;28;20096;-44
2022/02/25 02:21:11;;;;;;;6.68;2.80;;;2.40;99.90;;;;;;5072912;28;20020;-42
2022/02/25 02:23:37;;;;;;;5.80;2.05;;;2.40;99.90;;;;;;5069925;28;20573;-42
2022/02/25 02:26:02;;;;;;;5.93;2.60;;;2.40;99.90;;;;;;5075824;28;20110;-43
2022/02/25 02:28:28;;;;;;;5.38;2.67;;;2.40;99.90;;;;;;5067526;28;20028;-44
2022/02/25 02:30:54;;;;;;;5.10;3.00;;;2.40;99.90;;;;;;5078309;28;20021;-44
2022/02/25 02:33:20;;;;;;;4.50;2.50;;;2.40;99.90;;;;;;5066655;28;20056;-43
2022/02/25 02:35:46;;;;;;;6.50;2.45;;;2.40;99.90;;;;;;5077831;28;20024;-40
2022/02/25 02:38:12;;;;;;;6.63;2.47;;;2.40;99.90;;;;;;5066266;28;20055;-40
2022/02/25 02:40:38;;;;;;;5.13;2.42;;;2.40;99.90;;;;;;5077900;28;20028;-43
2022/02/25 02:43:06;;;;;;;4.88;2.38;;;2.40;99.90;;;;;;5066935;28;20040;-44
2022/02/25 02:45:31;;;;;;;5.50;3.03;;;2.40;99.90;;;;;;5078259;28;20036;-43
2022/02/25 02:47:57;;;;;;;6.07;2.42;;;2.40;99.90;;;;;;5065962;28;20487;-40
2022/02/25 02:50:22;;;;;;;6.35;2.55;;;2.40;99.90;;;;;;5076827;28;20134;-43
2022/02/25 02:52:48;;;;;;;4.28;2.45;;;2.30;99.90;;;;;;5067536;28;20028;-44
2022/02/25 02:55:13;;;;;;;7.05;2.88;;;2.30;99.90;;;;;;5073605;28;20036;-44
2022/02/25 02:57:39;;;;;;;6.82;2.60;;;2.30;99.90;;;;;;5070400;28;20047;-40
2022/02/25 03:00:05;;;;;;;9.25;3.00;;;2.30;99.90;;;;;;5071824;28;20177;-42
2022/02/25 03:02:31;;;;;;;6.70;2.88;;;2.30;99.90;;;;;;5071908;28;20043;-42
2022/02/25 03:04:57;;;;;;;4.65;2.90;;;2.30;99.90;;;;;;5068465;28;20031;-42
2022/02/25 03:07:23;;;;;;;5.03;2.78;;;2.30;99.90;;;;;;5075365;28;20036;-43
2022/02/25 03:09:49;;;;;;;7.22;2.60;;;2.30;99.90;;;;;;5066554;28;20021;-41
2022/02/25 03:12:15;;;;;;;7.07;2.42;;;2.30;99.90;;;;;;5076299;28;20024;-42
2022/02/25 03:14:40;;;;;;;5.93;2.50;;;2.30;99.90;;;;;;5067582;28;20048;-42
2022/02/25 03:17:07;;;;;;;4.85;2.92;;;2.40;99.90;;;;;;5076438;28;20024;-42
2022/02/25 03:19:35;;;;;;;6.65;2.80;;;2.40;99.90;;;;;;5064786;28;20036;-42
2022/02/25 03:22:01;;;;;;;5.15;2.58;;;2.30;99.90;;;;;;5078498;28;20039;-43
2022/02/25 03:24:26;;;;;;;8.18;3.00;;;2.40;99.90;;;;;;5065335;28;20427;-43
2022/02/25 03:26:52;;;;;;;6.43;2.95;;;2.40;99.90;;;;;;5077912;28;20035;-43
2022/02/25 03:29:17;;;;;;;7.85;3.92;;;2.40;99.90;;;;;;5064874;28;20043;-41
2022/02/25 03:31:43;;;;;;;5.32;3.22;;;2.40;99.90;;;;;;5075773;28;20024;-42
2022/02/25 03:34:08;;;;;;;5.43;3.00;;;2.40;99.90;;;;;;5067249;28;20037;-42
2022/02/25 03:36:34;;;;;;;6.40;2.90;;;2.50;99.90;;;;;;5072719;28;20139;-43
2022/02/25 03:38:59;;;;;;;6.82;2.30;;;2.50;99.90;;;;;;5070642;28;20128;-42
2022/02/25 03:41:25;;;;;;;5.90;2.78;;;2.50;99.90;;;;;;5070031;28;20020;-43
2022/02/25 03:43:52;;;;;;;6.38;2.92;;;2.50;99.90;;;;;;5072645;28;20440;-42
2022/02/25 03:46:17;;;;;;;5.38;2.35;;;2.50;99.90;;;;;;5067951;28;20043;-44
2022/02/25 03:48:43;;;;;;;6.93;2.83;;;2.50;99.90;;;;;;5075419;28;20680;-43
2022/02/25 03:51:09;;;;;;;9.23;2.63;;;2.50;99.90;;;;;;5066147;28;20022;-42
2022/02/25 03:53:34;;;;;;;7.20;3.10;;;2.50;99.90;;;;;;5076640;28;20396;-43
2022/02/25 03:56:00;;;;;;;8.20;2.78;;;2.50;99.90;;;;;;5066996;28;20536;-44
2022/02/25 03:58:26;;;;;;;5.93;2.70;;;2.40;99.90;;;;;;5075944;28;20039;-42
2022/02/25 04:00:52;;;;;;;8.52;3.10;;;2.50;99.90;;;;;;5065771;28;20376;-43
2022/02/25 04:03:18;;;;;;;6.50;3.00;;;2.50;99.90;;;;;;5077430;28;20486;-43
2022/02/25 04:05:43;;;;;;;7.43;2.45;;;2.50;99.90;;;;;;5065123;28;20027;-41
2022/02/25 04:08:09;;;;;;;4.65;2.25;;;2.50;99.90;;;;;;5077628;28;20024;-43
2022/02/25 04:10:35;;;;;;;9.07;2.80;;;2.50;99.90;;;;;;5065327;28;20375;-44
2022/02/25 04:13:01;;;;;;;5.80;2.20;;;2.50;99.90;;;;;;5074734;28;20570;-43
2022/02/25 04:15:27;;;;;;;9.60;2.42;;;2.50;99.90;;;;;;5067419;28;20413;-42
2022/02/25 04:17:53;;;;;;;6.78;2.80;;;2.50;99.90;;;;;;5072282;28;20374;-43
2022/02/25 04:20:18;;;;;;;6.25;2.53;;;2.40;99.90;;;;;;5069864;28;20027;-43
2022/02/25 04:22:44;;;;;;;4.53;2.25;;;2.40;99.90;;;;;;5069654;28;20479;-43
2022/02/25 04:25:09;;;;;;;4.20;2.03;;;2.40;99.90;;;;;;5072826;28;20638;-44
2022/02/25 04:27:36;;;;;;;6.63;2.38;;;2.40;99.90;;;;;;5066472;28;20024;-43
2022/02/25 04:30:02;;;;;;;5.95;2.08;;;2.40;99.90;;;;;;5075795;28;20039;-43
2022/02/25 04:32:28;;;;;;;4.97;2.22;;;2.40;99.90;;;;;;5069268;28;20028;-43
2022/02/25 04:34:53;;;;;;;7.53;2.72;;;2.40;99.90;;;;;;5079852;28;20207;-43
2022/02/25 04:37:19;;;;;;;6.30;2.30;;;2.40;99.90;;;;;;5068850;28;20071;-43
2022/02/25 04:39:45;;;;;;;6.40;2.42;;;2.40;99.90;;;;;;5079952;28;20035;-43
2022/02/25 04:42:11;;;;;;;7.18;2.83;;;2.40;99.90;;;;;;5068525;28;20028;-43
2022/02/25 04:44:37;;;;;;;6.70;2.30;;;2.40;99.90;;;;;;5080631;28;20031;-42
2022/02/25 04:47:03;;;;;;;10.30;2.83;;;2.40;99.90;;;;;;5068351;28;20021;-42
2022/02/25 04:49:28;;;;;;;5.88;2.78;;;2.40;99.90;;;;;;5080081;28;20027;-43
2022/02/25 04:51:54;;;;;;;8.30;3.28;;;2.40;99.90;;;;;;5069372;28;20024;-43
2022/02/25 04:54:19;;;;;;;10.85;3.00;;;2.40;99.90;;;;;;5076667;28;20044;-43
2022/02/25 04:56:45;;;;;;;10.02;3.15;;;2.40;99.90;;;;;;5071357;28;20032;-43
2022/02/25 04:59:10;;;;;;;10.68;3.17;;;2.40;99.90;;;;;;5074869;28;20126;-43
2022/02/25 05:01:36;;;;;;;11.05;3.22;;;2.40;99.90;;;;;;5073218;28;20028;-43
2022/02/25 05:04:03;;;;;;;6.20;2.70;;;2.40;99.90;;;;;;5072680;28;20039;-43
2022/02/25 05:06:28;;;;;;;6.20;2.55;;;2.40;99.90;;;;;;5076235;28;20033;-43
2022/02/25 05:08:54;;;;;;;8.43;2.70;;;2.40;99.90;;;;;;5069285;28;20104;-42
2022/02/25 05:11:19;;;;;;;5.82;3.08;;;2.40;99.90;;;;;;5078484;28;20020;-42
2022/02/25 05:13:45;;;;;;;10.70;2.88;;;2.40;99.90;;;;;;5069199;28;20480;-43
2022/02/25 05:21:39;;;;;;;7.07;2.50;;;2.40;99.90;;;;;;5077287;28;20043;-43
2022/02/25 05:24:05;;;;;;;10.18;3.95;;;2.40;99.90;;;;;;5086525;28;20032;-43
2022/02/25 05:26:30;;;;;;;13.93;3.53;;;2.50;99.90;;;;;;5076207;28;20024;-42
2022/02/25 05:28:56;;;;;;;8.57;2.80;;;2.50;99.90;;;;;;5087719;28;20074;-43
2022/02/25 05:31:21;;;;;;;11.48;3.15;;;2.50;99.90;;;;;;5074681;28;20028;-43
2022/02/25 05:33:47;;;;;;;5.38;2.40;;;2.50;99.90;;;;;;5088123;28;20199;-42
2022/02/25 05:36:14;;;;;;;8.82;3.35;;;2.50;99.90;;;;;;5074665;28;20464;-43
2022/02/25 05:38:40;;;;;;;13.35;2.80;;;2.60;99.90;;;;;;5088490;28;20101;-43
2022/02/25 05:41:06;;;;;;;11.15;3.67;;;2.70;99.90;;;;;;5076305;28;20040;-42
2022/02/25 05:43:31;;;;;;;7.60;2.13;;;2.80;99.90;;;;;;5085536;28;20031;-42
2022/02/25 05:45:57;;;;;;;6.78;2.60;;;2.80;99.90;;;;;;5078733;28;20029;-43
2022/02/25 05:48:23;;;;;;;13.80;2.60;;;2.80;99.90;;;;;;5083856;28;20040;-43
2022/02/25 05:50:48;;;;;;;9.23;2.83;;;2.80;99.90;;;;;;5075324;28;20107;-43
2022/02/25 05:53:14;;;;;;;6.93;2.40;;;2.80;99.90;;;;;;5073073;28;20052;-43
2022/02/25 05:55:40;;;;;;;7.63;2.65;;;2.80;99.90;;;;;;5070657;28;20892;-44
2022/02/25 05:58:06;;;;;;;8.43;2.90;;;2.90;99.90;;;;;;5076110;28;20510;-41
2022/02/25 06:00:32;;;;;;;8.90;2.55;;;2.80;99.90;;;;;;5067880;28;20023;-42
2022/02/25 06:02:57;;;;;;;8.13;2.90;;;2.90;99.90;;;;;;5078490;28;20036;-43
2022/02/25 06:05:24;;;;;;;8.00;2.80;;;2.90;99.90;;;;;;5067505;28;20032;-44
2022/02/25 06:07:49;;;;;;;10.38;2.58;;;2.90;99.90;;;;;;5078335;28;20790;-43
2022/02/25 06:10:16;;;;;;;8.98;2.10;;;3.00;99.90;;;;;;5066330;28;20027;-42
2022/02/25 06:12:41;;;;;;;11.23;2.60;;;3.10;99.90;;;;;;5079060;28;20020;-42
2022/02/25 06:15:08;;;;;;;11.40;2.67;;;3.20;99.90;;;;;;5067607;28;20035;-42
2022/02/25 06:17:41;;;;;;;10.13;2.35;;;3.30;99.90;;;;;;5078995;28;20024;-43
2022/02/25 06:20:07;;;;;;;;;;;3.30;99.90;;;;;;5066474;28;20388;-43
2022/02/25 06:22:32;;;;;;;7.55;2.58;;;3.40;99.90;;;;;;5078317;28;20381;-42
2022/02/25 06:24:58;;;;;;;17.23;4.43;;;3.40;99.90;;;;;;5067650;28;20028;-43
2022/02/25 06:27:23;;;;;;;9.00;2.65;;;3.40;99.90;;;;;;5074183;28;20494;-42
2022/02/25 06:29:49;;;;;;;11.02;2.20;;;3.50;99.90;;;;;;5070130;28;20028;-42
2022/02/25 06:32:17;;;;;;;10.23;2.42;;;3.50;99.90;;;;;;5071789;28;20019;-43
2022/02/25 06:34:43;;;;;;;11.90;2.60;;;3.60;99.90;;;;;;5072411;28;20029;-43
2022/02/25 06:37:08;;;;;;;9.35;2.83;;;3.60;99.90;;;;;;5070226;28;20434;-42
2022/02/25 06:39:34;;;;;;;11.80;3.22;;;3.70;99.90;;;;;;5074724;28;20079;-42
2022/02/25 06:41:59;;;;;;;8.85;2.30;;;3.70;99.90;;;;;;5067584;28;20021;-41
2022/02/25 06:44:25;;;;;;;12.13;3.75;;;3.70;99.90;;;;;;5076886;28;20059;-42
2022/02/25 06:46:50;;;;;;;8.57;2.58;;;3.70;99.90;;;;;;5067283;28;20021;-42
2022/02/25 06:49:16;;;;;;;13.13;3.30;;;3.70;99.90;;;;;;5077537;28;20491;-42
2022/02/25 06:51:41;;;;;;;7.70;2.70;;;3.70;99.90;;;;;;5066410;28;20474;-43
2022/02/25 06:54:07;;;;;;;9.57;2.90;;;3.70;99.90;;;;;;5079359;28;20097;-42
2022/02/25 06:56:32;;;;;;;11.43;2.78;;;3.80;99.90;;;;;;5086178;28;20769;-42
2022/02/25 06:58:58;;;;;;;13.32;3.42;;;3.80;99.90;;;;;;5080330;28;20039;-43
2022/02/25 07:01:23;;;;;;;7.90;2.85;;;3.80;99.90;;;;;;5084651;28;20020;-42
2022/02/25 07:03:49;;;;;;;9.77;3.70;;;3.80;99.90;;;;;;5072781;28;20074;-43
2022/02/25 07:06:15;;;;;;;8.00;3.05;;;3.80;99.90;;;;;;5083299;28;20032;-43
2022/02/25 07:08:40;;;;;;;14.00;2.88;;;3.80;99.90;;;;;;5076281;28;20031;-43
2022/02/25 07:11:06;;;;;;;12.32;3.13;;;3.80;99.90;;;;;;5080880;28;20024;-42
2022/02/25 07:13:31;;;;;;;13.85;3.25;;;3.80;99.90;;;;;;5079280;28;20021;-42
2022/02/25 07:15:58;;;;;;;12.77;3.65;;;3.90;99.90;;;;;;5078322;28;20030;-43
2022/02/25 07:18:23;;;;;;;12.55;3.40;;;3.80;99.90;;;;;;5081346;28;20481;-43
2022/02/25 07:20:49;;;;;;;9.52;3.38;;;3.90;99.90;;;;;;5075392;28;20032;-43
2022/02/25 07:23:16;;;;;;;10.50;2.70;;;3.90;99.90;;;;;;5081400;28;20027;-43
2022/02/25 07:25:42;;;;;;;11.15;2.83;;;3.90;99.90;;;;;;5074536;28;20098;-43
2022/02/25 07:28:08;;;;;;;13.27;3.00;;;4.00;99.90;;;;;;5083476;28;20103;-43
2022/02/25 07:30:37;;;;;;;8.80;2.80;;;4.00;99.90;;;;;;5073080;28;20684;-42
2022/02/25 07:33:03;;;;;;;11.40;3.45;;;4.10;99.90;;;;;;5084448;28;20506;-43
2022/02/25 07:35:29;;;;;;;10.60;3.05;;;4.10;99.90;;;;;;5071377;28;20024;-43
2022/02/25 07:37:55;;;;;;;10.45;2.70;;;4.10;99.90;;;;;;5084274;28;20039;-42
2022/02/25 07:40:21;;;;;;;12.20;3.88;;;4.10;99.90;;;;;;5072065;28;20024;-42
2022/02/25 07:42:47;;;;;;;7.53;3.03;;;4.10;99.90;;;;;;5084141;28;20032;-42
2022/02/25 07:45:13;;;;;;;9.70;2.83;;;4.10;99.90;;;;;;5083746;28;20368;-43
2022/02/25 07:47:39;;;;;;;7.40;2.58;;;4.10;99.90;;;;;;5067499;28;20059;-43
2022/02/25 07:50:06;;;;;;;7.88;2.75;;;4.10;99.90;;;;;;5073275;28;20062;-42
2022/02/25 07:52:32;;;;;;;9.27;2.88;;;4.10;99.90;;;;;;5086500;28;20024;-43
2022/02/25 07:54:57;;;;;;;9.95;2.63;;;4.10;99.90;;;;;;5093365;28;20120;-43
2022/02/25 07:57:23;;;;;;;10.52;2.63;;;4.10;99.90;;;;;;5091221;28;20157;-43
2022/02/25 07:59:48;;;;;;;12.63;2.72;;;4.10;99.90;;;;;;5081932;28;20028;-42
2022/02/25 08:02:17;;;;;;;14.27;3.13;;;4.10;99.90;;;;;;5075434;28;20353;-43
2022/02/25 08:04:42;;;;;;;9.88;2.80;;;4.10;99.90;;;;;;5083697;28;20074;-43
2022/02/25 08:07:08;;;;;;;8.00;2.60;;;4.10;99.90;;;;;;5077060;28;20051;-43
2022/02/25 08:09:34;;;;;;;8.35;2.50;;;4.20;99.90;;;;;;5087713;28;20040;-43
2022/02/25 08:11:59;;;;;;;9.32;3.10;;;4.20;99.90;;;;;;5079213;28;20032;-43
2022/02/25 08:14:25;;;;;;;11.65;2.83;;;4.30;99.90;;;;;;5068476;28;20025;-42
2022/02/25 08:16:50;;;;;;;16.92;3.10;;;4.40;99.90;;;;;;5081650;28;20020;-43
2022/02/25 08:19:17;;;;;;;11.95;2.78;;;4.50;99.90;;;;;;5068004;28;20047;-42
2022/02/25 08:21:42;;;;;;;12.60;3.00;;;4.70;99.90;;;;;;5082004;28;20024;-42
2022/02/25 08:24:08;;;;;;;13.35;2.90;;;4.80;99.90;;;;;;5068906;28;20028;-42
2022/02/25 08:26:34;;;;;;;11.75;2.60;;;5.00;99.90;;;;;;5078761;28;20116;-42
2022/02/25 08:28:59;;;;;;;18.10;2.80;;;5.00;99.90;;;;;;5070718;28;20021;-42
2022/02/25 08:31:25;;;;;;;11.05;2.45;;;5.10;99.90;;;;;;5075404;28;20519;-42
2022/02/25 08:33:51;;;;;;;9.40;2.65;;;5.10;99.90;;;;;;5072750;28;20075;-43
2022/02/25 08:36:18;;;;;;;10.95;2.67;;;5.30;99.90;;;;;;5073599;28;20024;-43
2022/02/25 08:38:44;;;;;;;14.95;2.75;;;5.40;99.90;;;;;;5075462;28;20032;-43
2022/02/25 08:41:10;;;;;;;10.38;2.35;;;5.50;99.90;;;;;;5071736;28;20050;-43
2022/02/25 08:43:35;;;;;;;11.40;2.50;;;5.60;99.90;;;;;;5077488;28;20029;-43
2022/02/25 08:46:01;;;;;;;11.40;3.25;;;5.70;99.90;;;;;;5070096;28;20028;-43
2022/02/25 08:48:28;;;;;;;11.35;2.55;;;5.70;99.90;;;;;;5079104;28;20024;-44
2022/02/25 08:50:54;;;;;;;9.45;2.42;;;5.80;99.90;;;;;;5070128;28;20020;-43
2022/02/25 08:53:20;;;;;;;10.25;3.15;;;5.80;99.90;;;;;;5078536;28;20051;-44
2022/02/25 08:55:45;;;;;;;16.73;3.05;;;5.80;99.90;;;;;;5068274;28;20028;-43
2022/02/25 08:58:11;;;;;;;7.60;2.28;;;5.80;99.90;;;;;;5080386;28;20078;-43
2022/02/25 09:00:37;;;;;;;13.10;2.65;;;5.90;99.90;;;;;;5067759;28;20096;-44
2022/02/25 09:03:02;;;;;;;17.63;3.00;;;5.90;99.90;;;;;;5080789;28;20685;-41
2022/02/25 09:05:28;;;;;;;15.57;2.83;;;6.00;99.90;;;;;;5067141;28;20020;-44
2022/02/25 09:07:54;;;;;;;8.80;2.50;;;6.20;99.90;;;;;;5078302;28;20539;-41
2022/02/25 09:10:21;;;;;;;16.05;3.13;;;6.30;99.90;;;;;;5072075;28;20036;-42
2022/02/25 09:12:48;;;;;;;16.30;3.28;;;6.40;99.90;;;;;;5079443;28;20025;-42
2022/02/25 09:15:17;;;;;;;11.35;2.70;;;6.50;99.90;;;;;;5083261;28;20077;-43
2022/02/25 09:17:42;;;;;;;10.93;3.00;;;6.60;99.90;;;;;;5081598;28;20032;-43
2022/02/25 09:20:09;;;;;;;20.77;4.13;;;6.70;99.90;;;;;;5081779;28;20024;-43
2022/02/25 09:22:36;;;;;;;13.30;2.85;;;6.80;99.90;;;;;;5083792;28;20330;-43
2022/02/25 09:25:01;;;;;;;14.20;2.63;;;6.90;99.90;;;;;;5078570;28;20507;-43
2022/02/25 09:27:28;;;;;;;11.45;2.75;;;7.00;99.90;;;;;;5086122;28;20024;-43
2022/02/25 09:29:55;;;;;;;13.18;2.53;;;7.10;99.90;;;;;;5076353;28;20098;-42
2022/02/25 09:32:20;;;;;;;12.13;2.60;;;7.30;99.90;;;;;;5085926;28;20036;-43
2022/02/25 09:34:47;;;;;;;12.60;2.58;;;7.40;99.90;;;;;;5076568;28;20085;-44
2022/02/25 09:37:13;;;;;;;16.60;2.60;;;7.50;99.90;;;;;;5087034;28;20016;-42
2022/02/25 09:39:39;;;;;;;13.13;2.92;;;7.50;99.90;;;;;;5075140;28;20483;-43
2022/02/25 09:42:07;;;;;;;11.65;2.50;;;7.50;99.90;;;;;;5087367;28;20157;-42
2022/02/25 09:44:34;;;;;;;9.30;2.13;;;7.60;99.90;;;;;;5073758;28;20025;-42
2022/02/25 09:47:00;;;;;;;7.85;1.98;;;7.60;99.90;;;;;;5086542;28;20054;-43
2022/02/25 09:49:28;;;;;;;11.18;2.60;;;7.60;99.90;;;;;;5074587;28;20036;-43
2022/02/25 09:52:03;;;;;;;15.02;2.08;;;7.60;99.90;;;;;;5087181;28;20105;-43
2022/02/25 09:54:29;;;;;;;13.82;3.00;;;7.50;99.90;;;;;;5080012;28;20083;-44
2022/02/25 09:56:54;;;;;;;8.98;2.08;;;7.50;99.90;;;;;;5068075;28;20055;-42
2022/02/25 09:59:20;;;;;;;13.45;2.40;;;7.40;99.90;;;;;;5073077;28;20463;-44
2022/02/25 10:01:48;;;;;;;14.88;3.00;;;7.30;99.90;;;;;;5070764;28;20024;-43
2022/02/25 10:04:22;;;;;;;15.55;2.30;;;7.20;99.90;;;;;;5070768;28;20378;-43
2022/02/25 10:06:49;;;;;;;13.27;2.38;;;7.10;99.90;;;;;;5082013;28;20076;-43
2022/02/25 10:09:31;;;;;;;10.65;2.67;;;7.10;99.90;;;;;;5082038;28;20028;-43
2022/02/25 10:12:04;;;;;;;13.07;2.67;;;7.00;99.90;;;;;;5080470;28;20032;-44
2022/02/25 10:14:35;;;;;;;10.25;2.28;;;6.90;99.90;;;;;;5082642;28;20024;-42
2022/02/25 10:17:14;;;;;;;12.85;3.08;;;6.80;99.90;;;;;;5080204;28;20036;-43
2022/02/25 10:19:41;;;;;;;11.40;3.03;;;6.80;99.90;;;;;;5081823;28;20074;-43
2022/02/25 10:22:20;;;;;;;9.50;2.45;;;6.80;99.90;;;;;;5080024;28;20059;-43
2022/02/25 10:25:08;;;;;;;10.10;2.40;;;6.90;99.90;;;;;;5081847;28;20036;-43
2022/02/25 10:27:40;;;;;;;9.55;2.25;;;7.00;99.90;;;;;;5080034;28;20055;-42
2022/02/25 10:30:17;;;;;;;10.85;2.33;;;7.00;99.90;;;;;;5081631;28;20021;-43
2022/02/25 10:32:45;;;;;;;15.25;3.08;;;7.10;99.90;;;;;;5081438;28;20024;-43
2022/02/25 10:35:23;;;;;;;12.68;2.78;;;7.10;99.90;;;;;;5082217;28;20032;-43
2022/02/25 10:38:25;;;;;;;10.98;2.45;;;7.00;99.90;;;;;;5080442;28;20791;-43
2022/02/25 10:40:52;;;;;;;6.72;2.03;;;7.00;99.90;;;;;;5077949;28;20066;-43
2022/02/25 10:43:17;;;;;;;11.02;2.20;;;7.00;99.90;;;;;;5082665;28;20066;-43
2022/02/25 10:45:46;;;;;;;10.52;2.30;;;7.00;99.90;;;;;;5079745;28;20628;-41
2022/02/25 10:48:23;;;;;;;10.32;2.33;;;7.00;99.90;;;;;;5080802;28;20028;-43
2022/02/25 10:50:48;;;;;;;8.80;2.13;;;7.00;99.90;;;;;;5073512;28;20020;-43
2022/02/25 10:53:16;;;;;;;15.55;2.95;;;6.90;99.90;;;;;;5031621;28;20044;-43
2022/02/25 10:55:42;;;;;;;12.65;2.45;;;6.80;99.90;;;;;;4980614;28;20020;-43
2022/02/25 10:58:08;;;;;;;12.63;3.00;;;6.80;99.90;;;;;;4989191;28;20035;-44
2022/02/25 11:00:34;;;;;;;12.65;2.60;;;6.70;99.90;;;;;;4961640;28;20188;-43
2022/02/25 11:03:00;;;;;;;12.50;2.53;;;6.60;99.90;;;;;;5024024;28;20865;-42
2022/02/25 11:05:33;;;;;;;11.73;2.40;;;6.50;99.90;;;;;;5012476;28;20506;-43
2022/02/25 11:08:01;;;;;;;11.43;2.28;;;6.50;99.90;;;;;;5040757;28;20024;-43
2022/02/25 11:10:32;;;;;;;9.82;2.50;;;6.40;99.90;;;;;;5083321;28;20546;-43
2022/02/25 11:13:06;;;;;;;10.25;3.05;;;6.30;99.90;;;;;;5076036;28;20116;-43
2022/02/25 11:15:39;;;;;;;11.10;2.33;;;6.10;99.90;;;;;;5063979;28;20036;-44
2022/02/25 11:18:07;;;;;;;15.70;3.00;;;5.90;99.90;;;;;;5074134;28;20032;-43
2022/02/25 11:20:35;;;;;;;12.52;2.30;;;5.60;99.90;;;;;;5083283;28;20078;-43
2022/02/25 11:23:04;;;;;;;11.50;2.38;;;5.40;99.90;;;;;;5072387;28;20059;-44
2022/02/25 11:25:30;;;;;;;9.98;2.10;;;5.40;99.90;;;;;;5085406;28;20028;-44
2022/02/25 11:27:58;;;;;;;8.48;2.70;;;5.50;99.90;;;;;;5071382;28;20044;-44
2022/02/25 11:30:33;;;;;;;10.00;1.85;;;5.50;99.90;;;;;;5093394;28;20016;-44
2022/02/25 11:33:02;;;;;;;9.80;2.22;;;5.50;99.90;;;;;;5083841;28;20124;-43
2022/02/25 11:35:33;;;;;;;10.82;2.35;;;5.50;99.90;;;;;;5063940;28;20035;-42
2022/02/25 11:38:07;;;;;;;10.30;2.05;;;5.50;99.90;;;;;;5075221;28;20070;-43
2022/02/25 11:40:46;;;;;;;10.30;2.25;;;5.50;99.90;;;;;;5065291;28;20043;-43
2022/02/25 11:43:12;;;;;;;9.00;1.83;;;5.50;99.90;;;;;;5075317;28;20475;-42
2022/02/25 11:45:57;;;;;;;9.82;2.97;;;5.60;99.90;;;;;;5066543;28;20048;-43
2022/02/25 11:48:36;;;;;;;11.73;2.38;;;5.70;99.90;;;;;;5075063;28;20126;-43
2022/02/25 11:51:03;;;;;;;7.85;1.77;;;5.80;99.90;;;;;;5064800;28;20383;-43
2022/02/25 11:53:28;;;;;;;14.10;2.20;;;6.00;99.90;;;;;;5076431;28;20117;-43
2022/02/25 11:56:12;;;;;;;10.43;2.47;;;6.00;99.90;;;;;;5066748;28;20032;-43
2022/02/25 11:58:49;;;;;;;13.40;2.40;;;6.10;99.90;;;;;;5070101;28;20090;-43
2022/02/25 12:01:22;;;;;;;11.48;2.55;;;6.10;99.90;;;;;;5084518;28;20031;-42
2022/02/25 12:04:11;;;;;;;9.07;2.35;;;6.10;99.90;;;;;;5074276;28;20495;-42
2022/02/25 12:06:55;;;;;;;7.85;2.10;;;6.20;99.90;;;;;;5065471;28;20387;-42
2022/02/25 12:09:48;;;;;;;8.07;1.90;;;6.30;99.90;;;;;;5077046;28;20047;-42
2022/02/25 12:12:22;;;;;;;11.00;2.53;;;6.30;99.90;;;;;;5064537;28;20055;-44
2022/02/25 12:15:06;;;;;;;15.00;3.50;;;6.30;99.90;;;;;;5071268;28;20111;-44
2022/02/25 12:17:36;;;;;;;10.38;2.60;;;6.40;99.90;;;;;;5083635;28;20115;-44
2022/02/25 12:20:09;;;;;;;16.40;2.40;;;6.40;99.90;;;;;;5071480;28;20028;-42
2022/02/25 12:23:05;;;;;;;12.50;3.08;;;6.60;99.90;;;;;;5084733;28;20166;-43
2022/02/25 12:25:39;;;;;;;12.90;2.90;;;6.80;99.90;;;;;;5072073;28;20100;-44
2022/02/25 12:28:20;;;;;;;14.85;3.25;;;7.00;99.90;;;;;;5083327;28;20119;-44
2022/02/25 12:30:53;;;;;;;12.38;3.72;;;7.10;99.90;;;;;;5077004;28;20028;-43
2022/02/25 12:33:44;;;;;;;14.13;3.40;;;7.10;99.90;;;;;;5065639;28;20028;-44
2022/02/25 12:36:17;;;;;;;15.65;2.53;;;7.10;99.90;;;;;;5074434;28;20028;-42
2022/02/25 12:38:47;;;;;;;;;;;7.20;99.90;;;;;;5083829;28;20041;-42
2022/02/25 12:41:21;;;;;;;13.27;2.90;;;7.10;99.90;;;;;;5072900;28;20390;-43
2022/02/25 12:43:53;;;;;;;20.67;2.88;;;7.10;99.90;;;;;;5079658;28;20027;-43
2022/02/25 12:46:21;;;;;;;15.07;2.97;;;7.10;99.90;;;;;;5071077;28;20028;-43
2022/02/25 12:48:47;;;;;;;14.98;3.05;;;7.10;99.90;;;;;;5082486;28;20390;-44
2022/02/25 12:51:13;;;;;;;19.65;2.63;;;7.10;99.90;;;;;;5075989;28;20020;-44
2022/02/25 12:53:48;;;;;;;13.93;2.88;;;7.10;99.90;;;;;;5066647;28;20574;-43
2022/02/25 12:56:16;;;;;;;14.15;2.85;;;7.10;99.90;;;;;;5080026;28;20085;-42
2022/02/25 12:58:42;;;;;;;14.80;2.63;;;7.00;99.90;;;;;;5068585;28;20056;-44
2022/02/25 13:01:15;;;;;;;12.18;2.85;;;7.00;99.90;;;;;;5080802;28;20028;-42